createdAt,value
2022-09-14T00:01:26.534Z,15.60
2022-09-14T00:03:57.507Z,15.60
2022-09-14T00:06:24.903Z,15.60
2022-09-14T00:08:54.177Z,15.60
2022-09-14T00:11:23.076Z,15.50
2022-09-14T00:13:51.380Z,15.50
2022-09-14T00:16:32.357Z,15.50
2022-09-14T00:19:06.300Z,15.50
2022-09-14T00:21:39.148Z,15.50
2022-09-14T00:24:07.206Z,15.40
2022-09-14T00:26:34.533Z,15.40
2022-09-14T00:29:05.184Z,15.40
2022-09-14T00:31:34.798Z,15.40
2022-09-14T00:34:02.985Z,15.40
2022-09-14T00:36:31.028Z,15.30
2022-09-14T00:38:58.492Z,15.30
2022-09-14T00:41:28.783Z,15.30
2022-09-14T00:44:06.134Z,15.30
2022-09-14T00:46:37.401Z,15.30
2022-09-14T00:49:10.504Z,15.20
2022-09-14T00:51:41.669Z,15.20
2022-09-14T00:54:08.685Z,15.10
2022-09-14T00:56:35.908Z,15.10
2022-09-14T00:59:13.164Z,15.10
2022-09-14T01:01:40.298Z,15.10
2022-09-14T01:04:07.288Z,15.10
2022-09-14T01:06:36.929Z,15.00
2022-09-14T01:09:09.820Z,15.00
2022-09-14T01:12:11.076Z,15.00
2022-09-14T01:14:56.338Z,15.00
2022-09-14T01:17:48.656Z,14.90
2022-09-14T01:20:35.023Z,14.90
2022-09-14T01:23:03.870Z,15.00
2022-09-14T01:25:39.725Z,14.90
2022-09-14T01:28:20.542Z,14.90
2022-09-14T01:30:49.683Z,15.00
2022-09-14T01:33:31.788Z,14.90
2022-09-14T01:36:02.871Z,15.10
2022-09-14T01:38:34.705Z,14.90
2022-09-14T01:41:05.402Z,14.90
2022-09-14T01:43:42.659Z,14.90
2022-09-14T01:46:18.556Z,14.90
2022-09-14T01:48:54.555Z,14.90
2022-09-14T01:51:28.507Z,14.80
2022-09-14T01:54:00.730Z,15.10
2022-09-14T01:56:35.272Z,14.80
2022-09-14T01:59:18.515Z,14.80
2022-09-14T02:01:56.154Z,15.20
2022-09-14T02:04:34.272Z,14.80
2022-09-14T02:07:01.266Z,14.80
2022-09-14T02:09:28.361Z,14.80
2022-09-14T02:12:00.466Z,14.80
2022-09-14T02:14:27.852Z,15.00
2022-09-14T02:16:54.716Z,14.90
2022-09-14T02:19:23.925Z,14.90
2022-09-14T02:21:51.248Z,14.90
2022-09-14T02:24:18.778Z,14.90
2022-09-14T02:26:47.153Z,14.80
2022-09-14T02:29:14.128Z,14.80
2022-09-14T02:32:12.286Z,14.60
2022-09-14T02:35:03.772Z,14.80
2022-09-14T02:38:04.565Z,14.70
2022-09-14T02:40:49.991Z,14.70
2022-09-14T02:43:19.629Z,14.70
2022-09-14T02:45:46.754Z,14.70
2022-09-14T02:48:34.740Z,14.70
2022-09-14T02:51:12.382Z,14.70
2022-09-14T02:53:54.737Z,14.70
2022-09-14T02:56:22.047Z,14.80
2022-09-14T02:58:48.987Z,14.80
2022-09-14T03:01:18.921Z,14.80
2022-09-14T03:03:49.404Z,14.90
2022-09-14T03:06:16.702Z,14.90
2022-09-14T03:08:43.944Z,14.90
2022-09-14T03:11:13.111Z,14.90
2022-09-14T03:13:40.095Z,14.90
2022-09-14T03:16:12.765Z,14.90
2022-09-14T03:18:40.379Z,14.90
2022-09-14T03:21:13.189Z,14.80
2022-09-14T03:23:45.299Z,14.80
2022-09-14T03:26:21.481Z,14.70
2022-09-14T03:28:53.218Z,14.70
2022-09-14T03:31:20.659Z,14.60
2022-09-14T03:33:52.979Z,14.60
2022-09-14T03:36:20.371Z,14.80
2022-09-14T03:38:50.315Z,14.50
2022-09-14T03:41:18.338Z,14.50
2022-09-14T03:43:45.851Z,14.50
2022-09-14T03:46:15.872Z,14.50
2022-09-14T03:48:46.259Z,14.50
2022-09-14T03:51:14.407Z,14.50
2022-09-14T03:53:42.451Z,14.50
2022-09-14T03:56:15.273Z,14.50
2022-09-14T03:58:43.034Z,14.40
2022-09-14T04:01:17.220Z,14.50
2022-09-14T04:03:44.875Z,14.40
2022-09-14T04:06:12.234Z,14.40
2022-09-14T04:08:41.052Z,14.50
2022-09-14T04:11:13.910Z,14.50
2022-09-14T04:13:44.818Z,14.50
2022-09-14T04:16:12.335Z,14.40
2022-09-14T04:18:39.279Z,14.40
2022-09-14T04:21:09.379Z,14.40
2022-09-14T04:23:56.575Z,14.40
2022-09-14T04:26:26.423Z,14.40
2022-09-14T04:28:53.865Z,14.30
2022-09-14T04:31:20.865Z,14.40
2022-09-14T04:33:51.383Z,14.30
2022-09-14T04:36:21.384Z,14.30
2022-09-14T04:38:52.274Z,14.30
2022-09-14T04:41:21.062Z,14.30
2022-09-14T04:43:50.532Z,14.30
2022-09-14T04:46:20.379Z,14.30
2022-09-14T04:48:48.285Z,14.30
2022-09-14T04:51:18.083Z,14.30
2022-09-14T04:53:47.005Z,14.30
2022-09-14T04:56:15.202Z,14.30
2022-09-14T04:58:51.369Z,14.30
2022-09-14T05:01:28.203Z,14.30
2022-09-14T05:03:55.461Z,14.30
2022-09-14T05:06:28.673Z,14.30
2022-09-14T05:08:56.352Z,14.30
2022-09-14T05:11:27.324Z,14.40
2022-09-14T05:13:59.183Z,14.40
2022-09-14T05:16:31.817Z,14.50
2022-09-14T05:19:05.082Z,14.50
2022-09-14T05:21:33.756Z,14.50
2022-09-14T05:24:16.328Z,14.60
2022-09-14T05:26:47.697Z,14.60
2022-09-14T05:29:17.632Z,14.80
2022-09-14T05:31:45.103Z,14.80
2022-09-14T05:34:12.699Z,14.90
2022-09-14T05:36:40.537Z,14.90
2022-09-14T05:39:08.586Z,15.00
2022-09-14T05:41:35.941Z,15.10
2022-09-14T05:44:03.217Z,15.20
2022-09-14T05:46:30.214Z,15.20
2022-09-14T05:48:57.123Z,15.30
2022-09-14T05:51:25.651Z,15.30
2022-09-14T05:53:54.915Z,15.40
2022-09-14T05:56:24.086Z,15.40
2022-09-14T05:58:51.442Z,15.50
2022-09-14T06:01:24.014Z,15.50
2022-09-14T06:03:54.312Z,15.50
2022-09-14T06:06:22.241Z,15.50
2022-09-14T06:08:52.604Z,15.60
2022-09-14T06:11:25.833Z,15.70
2022-09-14T06:13:54.292Z,15.80
2022-09-14T06:16:22.965Z,15.80
2022-09-14T06:18:50.181Z,15.90
2022-09-14T06:21:19.854Z,16.00
2022-09-14T06:23:48.800Z,16.10
2022-09-14T06:26:16.482Z,16.20
2022-09-14T06:28:44.214Z,16.30
2022-09-14T06:31:15.885Z,16.50
2022-09-14T06:33:47.446Z,16.60
2022-09-14T06:36:19.457Z,16.80
2022-09-14T06:38:50.055Z,17.00
2022-09-14T06:41:20.885Z,17.30
2022-09-14T06:43:48.886Z,17.40
2022-09-14T06:46:21.791Z,17.60
2022-09-14T06:48:55.479Z,17.90
2022-09-14T06:51:31.575Z,18.10
2022-09-14T06:54:00.267Z,17.90
2022-09-14T06:56:29.214Z,18.10
2022-09-14T06:58:57.288Z,18.10
2022-09-14T07:01:25.952Z,18.20
2022-09-14T07:03:53.753Z,18.20
2022-09-14T07:06:26.014Z,18.30
2022-09-14T07:08:54.500Z,18.30
2022-09-14T07:11:25.745Z,18.30
2022-09-14T07:14:01.919Z,18.30
2022-09-14T07:16:31.165Z,18.30
2022-09-14T07:19:00.529Z,18.40
2022-09-14T07:21:28.515Z,18.40
2022-09-14T07:23:58.086Z,18.50
2022-09-14T07:26:29.061Z,18.60
2022-09-14T07:29:04.735Z,18.80
2022-09-14T07:31:35.484Z,18.90
2022-09-14T07:34:04.051Z,19.10
2022-09-14T07:36:34.964Z,19.30
2022-09-14T07:39:07.052Z,19.50
2022-09-14T07:41:35.362Z,19.60
2022-09-14T07:44:04.970Z,19.70
2022-09-14T07:46:39.125Z,19.80
2022-09-14T07:49:11.202Z,19.90
2022-09-14T07:51:39.250Z,20.00
2022-09-14T07:54:08.222Z,20.10
2022-09-14T07:56:35.878Z,20.10
2022-09-14T07:59:31.262Z,20.20
2022-09-14T08:01:52.131Z,20.20
2022-09-14T08:04:19.223Z,20.30
2022-09-14T08:06:46.303Z,20.30
2022-09-14T08:09:14.479Z,20.30
2022-09-14T08:11:41.839Z,20.40
2022-09-14T08:14:11.590Z,20.40
2022-09-14T08:16:40.671Z,20.40
2022-09-14T08:19:20.969Z,20.40
2022-09-14T08:21:48.411Z,20.40
2022-09-14T08:24:18.034Z,20.40
2022-09-14T08:26:45.255Z,20.40
2022-09-14T08:29:13.616Z,20.50
2022-09-14T08:31:42.541Z,20.50
2022-09-14T08:34:09.513Z,20.60
2022-09-14T08:36:38.546Z,20.70
2022-09-14T08:39:09.213Z,20.70
2022-09-14T08:41:43.895Z,20.80
2022-09-14T08:44:28.790Z,20.70
2022-09-14T08:47:12.804Z,20.80
2022-09-14T08:49:42.813Z,20.90
2022-09-14T08:52:24.813Z,21.00
2022-09-14T08:54:57.273Z,21.20
2022-09-14T08:58:02.412Z,21.30
2022-09-14T09:00:53.910Z,21.40
2022-09-14T09:03:43.219Z,21.70
2022-09-14T09:06:55.586Z,22.00
2022-09-14T09:09:45.306Z,22.40
2022-09-14T09:12:24.295Z,22.60
2022-09-14T09:15:00.410Z,22.80
2022-09-14T09:17:49.388Z,22.90
2022-09-14T09:20:27.845Z,23.10
2022-09-14T09:23:13.650Z,23.30
2022-09-14T09:26:05.098Z,23.60
2022-09-14T09:28:33.624Z,23.70
2022-09-14T09:31:10.232Z,23.90
2022-09-14T09:33:39.660Z,24.10
2022-09-14T09:36:08.260Z,24.10
2022-09-14T09:38:35.478Z,24.20
2022-09-14T09:41:24.399Z,24.20
2022-09-14T09:44:11.864Z,24.30
2022-09-14T09:46:45.721Z,24.50
2022-09-14T09:49:20.609Z,24.50
2022-09-14T09:51:48.332Z,24.60
2022-09-14T09:54:17.775Z,24.70
2022-09-14T09:57:00.867Z,24.80
2022-09-14T09:59:41.004Z,24.90
2022-09-14T10:02:30.237Z,25.10
2022-09-14T10:05:07.125Z,25.30
2022-09-14T10:07:40.344Z,25.50
2022-09-14T10:10:11.052Z,25.60
2022-09-14T10:12:45.427Z,25.40
2022-09-14T10:15:17.264Z,25.20
2022-09-14T10:18:13.368Z,25.10
2022-09-14T10:21:03.190Z,24.90
2022-09-14T10:23:38.960Z,24.70
2022-09-14T10:26:15.023Z,24.50
2022-09-14T10:28:42.875Z,24.30
2022-09-14T10:31:32.496Z,24.20
2022-09-14T10:34:00.754Z,24.30
2022-09-14T10:36:31.591Z,24.30
2022-09-14T10:39:27.434Z,24.30
2022-09-14T10:42:27.738Z,24.30
2022-09-14T10:45:15.720Z,24.20
2022-09-14T10:47:45.645Z,24.20
2022-09-14T10:50:32.321Z,24.20
2022-09-14T10:53:14.700Z,24.10
2022-09-14T10:56:05.863Z,24.10
2022-09-14T10:58:50.923Z,24.10
2022-09-14T11:01:50.297Z,23.80
2022-09-14T11:04:17.186Z,23.80
2022-09-14T11:07:12.321Z,23.60
2022-09-14T11:09:51.412Z,23.50
2022-09-14T11:12:29.825Z,23.30
2022-09-14T11:15:24.006Z,23.10
2022-09-14T11:18:00.265Z,23.50
2022-09-14T11:20:50.803Z,23.50
2022-09-14T11:23:39.835Z,23.60
2022-09-14T11:26:18.648Z,23.70
2022-09-14T11:29:06.623Z,23.70
2022-09-14T11:31:55.316Z,23.70
2022-09-14T11:34:38.014Z,23.60
2022-09-14T11:37:12.100Z,23.70
2022-09-14T11:39:47.806Z,23.70
2022-09-14T11:42:22.923Z,23.60
2022-09-14T11:45:11.865Z,23.50
2022-09-14T11:47:46.415Z,23.50
2022-09-14T11:50:21.179Z,23.50
2022-09-14T11:52:52.769Z,23.30
2022-09-14T11:55:20.045Z,23.30
2022-09-14T11:57:47.608Z,23.20
2022-09-14T12:00:20.813Z,23.10
2022-09-14T12:03:17.624Z,23.20
2022-09-14T12:05:45.676Z,23.20
2022-09-14T12:08:30.829Z,23.20
2022-09-14T12:11:07.514Z,23.30
2022-09-14T12:13:35.903Z,23.30
2022-09-14T12:16:07.813Z,23.50
2022-09-14T12:18:39.281Z,23.50
2022-09-14T12:21:18.321Z,23.60
2022-09-14T12:23:51.739Z,23.80
2022-09-14T12:26:18.676Z,23.90
2022-09-14T12:28:52.253Z,23.90
2022-09-14T12:31:32.823Z,24.00
2022-09-14T12:34:24.031Z,24.00
2022-09-14T12:36:50.827Z,23.80
2022-09-14T12:39:33.002Z,23.70
2022-09-14T12:42:04.076Z,23.70
2022-09-14T12:44:36.913Z,23.70
2022-09-14T12:47:25.038Z,23.60
2022-09-14T12:49:57.776Z,23.40
2022-09-14T12:53:13.056Z,23.20
2022-09-14T12:55:43.277Z,23.00
2022-09-14T12:58:30.675Z,22.80
2022-09-14T13:01:26.516Z,22.50
2022-09-14T13:03:57.333Z,22.20
2022-09-14T13:06:33.443Z,22.00
2022-09-14T13:09:05.260Z,21.80
2022-09-14T13:11:40.192Z,21.60
2022-09-14T13:14:12.733Z,21.50
2022-09-14T13:16:44.172Z,21.60
2022-09-14T13:19:21.782Z,21.60
2022-09-14T13:21:51.411Z,21.60
2022-09-14T13:24:29.552Z,21.60
2022-09-14T13:26:59.261Z,21.60
2022-09-14T13:29:28.060Z,21.70
2022-09-14T13:32:02.424Z,21.60
2022-09-14T13:34:34.984Z,21.60
2022-09-14T13:37:02.893Z,21.70
2022-09-14T13:39:34.883Z,21.60
2022-09-14T13:42:02.350Z,21.60
2022-09-14T13:44:45.312Z,21.70
2022-09-14T13:47:16.513Z,21.70
2022-09-14T13:49:45.328Z,21.70
2022-09-14T13:52:30.981Z,21.60
2022-09-14T13:55:18.116Z,21.50
2022-09-14T13:58:11.683Z,21.50
2022-09-14T14:01:03.723Z,21.40
2022-09-14T14:03:30.651Z,21.40
2022-09-14T14:05:57.963Z,21.30
2022-09-14T14:08:32.803Z,21.30
2022-09-14T14:11:01.742Z,21.30
2022-09-14T14:13:34.248Z,21.20
2022-09-14T14:16:22.180Z,21.20
2022-09-14T14:18:58.922Z,21.20
2022-09-14T14:21:29.446Z,21.10
2022-09-14T14:24:26.667Z,21.10
2022-09-14T14:26:57.677Z,21.10
2022-09-14T14:29:25.694Z,21.10
2022-09-14T14:31:55.846Z,21.10
2022-09-14T14:34:28.460Z,21.10
2022-09-14T14:36:56.506Z,21.10
2022-09-14T14:39:25.403Z,21.10
2022-09-14T14:41:53.429Z,21.20
2022-09-14T14:44:28.072Z,21.20
2022-09-14T14:46:56.323Z,21.20
2022-09-14T14:49:23.751Z,21.00
2022-09-14T14:51:50.815Z,21.00
2022-09-14T14:54:18.831Z,21.00
2022-09-14T14:56:50.436Z,21.00
2022-09-14T14:59:20.359Z,21.20
2022-09-14T15:01:48.319Z,21.30
2022-09-14T15:04:15.442Z,21.30
2022-09-14T15:06:43.729Z,21.30
2022-09-14T15:09:15.229Z,21.30
2022-09-14T15:11:42.219Z,21.40
2022-09-14T15:14:14.545Z,21.40
2022-09-14T15:16:42.419Z,21.40
2022-09-14T15:19:13.160Z,21.30
2022-09-14T15:21:41.440Z,21.20
2022-09-14T15:24:09.212Z,21.10
2022-09-14T15:26:37.065Z,21.10
2022-09-14T15:29:04.622Z,21.00
2022-09-14T15:31:32.382Z,21.00
2022-09-14T15:33:59.662Z,20.90
2022-09-14T15:36:42.918Z,20.90
2022-09-14T15:39:13.601Z,20.80
2022-09-14T15:41:42.279Z,20.80
2022-09-14T15:44:11.517Z,20.70
2022-09-14T15:46:40.226Z,20.70
2022-09-14T15:49:11.225Z,20.60
2022-09-14T15:51:38.245Z,20.50
2022-09-14T15:54:05.345Z,20.50
2022-09-14T15:56:32.349Z,20.40
2022-09-14T15:59:01.024Z,20.30
2022-09-14T16:01:28.780Z,20.20
2022-09-14T16:04:11.001Z,20.20
2022-09-14T16:06:39.285Z,20.20
2022-09-14T16:09:08.174Z,20.10
2022-09-14T16:11:36.226Z,20.00
2022-09-14T16:14:05.498Z,20.00
2022-09-14T16:16:33.885Z,19.90
2022-09-14T16:19:06.173Z,19.90
2022-09-14T16:21:33.325Z,19.80
2022-09-14T16:24:01.952Z,19.80
2022-09-14T16:26:32.331Z,19.80
2022-09-14T16:28:59.597Z,19.70
2022-09-14T16:31:32.510Z,19.70
2022-09-14T16:34:03.269Z,19.70
2022-09-14T16:36:33.555Z,19.70
2022-09-14T16:39:04.830Z,19.70
2022-09-14T16:41:32.334Z,19.60
2022-09-14T16:44:02.115Z,19.60
2022-09-14T16:46:30.626Z,19.60
2022-09-14T16:49:00.951Z,19.60
2022-09-14T16:51:30.393Z,19.50
2022-09-14T16:53:59.900Z,19.50
2022-09-14T16:56:32.418Z,19.50
2022-09-14T16:59:00.711Z,19.50
2022-09-14T17:01:35.965Z,19.50
2022-09-14T17:04:09.684Z,19.50
2022-09-14T17:06:39.343Z,19.40
2022-09-14T17:09:12.184Z,19.40
2022-09-14T17:11:40.426Z,19.40
2022-09-14T17:14:08.571Z,19.40
2022-09-14T17:16:36.014Z,19.40
2022-09-14T17:19:04.597Z,19.30
2022-09-14T17:21:37.069Z,19.30
2022-09-14T17:24:05.436Z,19.20
2022-09-14T17:26:33.778Z,19.10
2022-09-14T17:29:01.875Z,19.00
2022-09-14T17:31:34.615Z,19.00
2022-09-14T17:34:03.483Z,18.80
2022-09-14T17:36:30.958Z,18.80
2022-09-14T17:38:59.481Z,18.70
2022-09-14T17:41:28.150Z,18.60
2022-09-14T17:43:58.238Z,18.50
2022-09-14T17:46:26.572Z,18.40
2022-09-14T17:48:53.671Z,18.40
2022-09-14T17:51:25.265Z,18.30
2022-09-14T17:53:54.770Z,18.20
2022-09-14T17:56:24.053Z,18.20
2022-09-14T17:59:01.812Z,18.10
2022-09-14T18:01:29.697Z,18.10
2022-09-14T18:03:59.373Z,18.00
2022-09-14T18:06:31.723Z,18.00
2022-09-14T18:09:03.415Z,17.90
2022-09-14T18:11:31.395Z,17.90
2022-09-14T18:14:01.374Z,17.90
2022-09-14T18:16:29.326Z,17.90
2022-09-14T18:18:59.627Z,17.90
2022-09-14T18:21:27.434Z,17.80
2022-09-14T18:23:55.527Z,17.80
2022-09-14T18:26:24.055Z,17.70
2022-09-14T18:28:53.617Z,17.70
2022-09-14T18:31:20.615Z,17.60
2022-09-14T18:33:52.596Z,17.60
2022-09-14T18:36:20.789Z,17.60
2022-09-14T18:38:48.791Z,17.50
2022-09-14T18:41:17.682Z,17.50
2022-09-14T18:43:47.045Z,17.50
2022-09-14T18:46:15.035Z,17.50
2022-09-14T18:48:44.606Z,17.40
2022-09-14T18:51:13.950Z,17.40
2022-09-14T18:53:41.458Z,17.30
2022-09-14T18:56:11.508Z,17.30
2022-09-14T18:58:43.777Z,17.20
2022-09-14T19:01:12.007Z,17.20
2022-09-14T19:03:40.865Z,17.20
2022-09-14T19:06:16.123Z,17.10
2022-09-14T19:08:43.756Z,17.10
2022-09-14T19:11:16.716Z,17.00
2022-09-14T19:13:44.838Z,17.00
2022-09-14T19:16:14.500Z,17.00
2022-09-14T19:18:42.806Z,16.90
2022-09-14T19:21:18.897Z,16.90
2022-09-14T19:23:47.832Z,16.90
2022-09-14T19:26:21.138Z,16.90
2022-09-14T19:28:48.209Z,16.90
2022-09-14T19:31:17.792Z,16.90
2022-09-14T19:33:45.823Z,16.90
2022-09-14T19:36:18.356Z,16.90
2022-09-14T19:38:47.393Z,16.90
2022-09-14T19:41:14.847Z,16.80
2022-09-14T19:43:42.444Z,16.80
2022-09-14T19:46:12.429Z,16.90
2022-09-14T19:48:39.980Z,16.80
2022-09-14T19:51:14.497Z,16.80
2022-09-14T19:53:41.998Z,16.80
2022-09-14T19:56:12.651Z,16.80
2022-09-14T19:58:42.470Z,16.70
2022-09-14T20:01:10.030Z,17.00
2022-09-14T20:03:37.308Z,16.70
2022-09-14T20:06:19.681Z,16.70
2022-09-14T20:08:48.039Z,16.60
2022-09-14T20:11:19.970Z,16.60
2022-09-14T20:13:51.051Z,16.60
2022-09-14T20:16:26.223Z,16.50
2022-09-14T20:18:53.377Z,16.50
2022-09-14T20:21:23.256Z,16.50
2022-09-14T20:24:17.675Z,16.40
2022-09-14T20:26:47.708Z,16.40
2022-09-14T20:29:15.847Z,16.40
2022-09-14T20:31:44.190Z,16.30
2022-09-14T20:34:11.674Z,16.30
2022-09-14T20:36:38.905Z,16.30
2022-09-14T20:39:06.397Z,16.30
2022-09-14T20:41:35.434Z,16.30
2022-09-14T20:44:03.491Z,16.30
2022-09-14T20:46:35.338Z,16.20
2022-09-14T20:49:04.297Z,16.20
2022-09-14T20:51:31.688Z,16.20
2022-09-14T20:53:58.584Z,16.20
2022-09-14T20:56:31.121Z,16.20
2022-09-14T20:59:00.076Z,16.20
2022-09-14T21:01:30.052Z,16.10
2022-09-14T21:04:06.540Z,16.10
2022-09-14T21:06:36.489Z,16.10
2022-09-14T21:09:05.166Z,16.00
2022-09-14T21:11:32.214Z,16.00
2022-09-14T21:13:59.266Z,16.00
2022-09-14T21:16:37.780Z,16.20
2022-09-14T21:19:08.914Z,16.00
2022-09-14T21:21:36.019Z,15.90
2022-09-14T21:24:03.333Z,15.90
2022-09-14T21:26:34.130Z,15.90
2022-09-14T21:29:06.214Z,15.80
2022-09-14T21:31:35.091Z,15.80
2022-09-14T21:34:03.715Z,15.80
2022-09-14T21:36:36.465Z,15.70
2022-09-14T21:39:07.265Z,15.70
2022-09-14T21:41:34.569Z,15.60
2022-09-14T21:44:01.753Z,15.60
2022-09-14T21:46:28.549Z,15.60
2022-09-14T21:48:56.070Z,15.60
2022-09-14T21:51:27.905Z,15.50
2022-09-14T21:53:56.977Z,15.50
2022-09-14T21:56:25.597Z,15.40
2022-09-14T21:58:54.548Z,15.40
2022-09-14T22:01:22.162Z,15.40
2022-09-14T22:03:51.422Z,15.30
2022-09-14T22:06:20.477Z,15.40
2022-09-14T22:08:49.067Z,15.40
2022-09-14T22:11:22.415Z,15.40
2022-09-14T22:13:55.208Z,15.40
2022-09-14T22:16:23.541Z,15.50
2022-09-14T22:18:54.156Z,15.60
2022-09-14T22:21:22.288Z,15.60
2022-09-14T22:23:53.963Z,15.60
2022-09-14T22:26:21.666Z,15.70
2022-09-14T22:28:49.967Z,15.70
2022-09-14T22:31:18.887Z,15.80
2022-09-14T22:33:46.090Z,15.80
2022-09-14T22:36:13.355Z,15.80
2022-09-14T22:38:43.391Z,15.70
2022-09-14T22:41:12.672Z,15.70
2022-09-14T22:43:40.818Z,15.70
2022-09-14T22:46:08.860Z,15.70
2022-09-14T22:48:36.647Z,15.70
2022-09-14T22:51:05.436Z,15.80
2022-09-14T22:53:32.945Z,15.60
2022-09-14T22:56:09.362Z,15.60
2022-09-14T22:58:36.941Z,15.50
2022-09-14T23:01:09.870Z,15.60
2022-09-14T23:03:37.107Z,15.50
2022-09-14T23:06:04.781Z,15.50
2022-09-14T23:08:35.174Z,15.50
2022-09-14T23:11:08.662Z,15.50
2022-09-14T23:13:37.024Z,15.40
2022-09-14T23:16:18.695Z,15.50
2022-09-14T23:18:53.449Z,15.30
2022-09-14T23:21:20.525Z,15.20
2022-09-14T23:23:52.271Z,15.10
2022-09-14T23:26:19.892Z,15.10
2022-09-14T23:28:55.153Z,15.30
2022-09-14T23:31:22.369Z,15.00
2022-09-14T23:33:50.886Z,14.90
2022-09-14T23:36:18.007Z,14.90
2022-09-14T23:38:47.922Z,14.80
2022-09-14T23:41:19.159Z,14.80
2022-09-14T23:43:46.755Z,14.80
2022-09-14T23:46:13.641Z,14.80
2022-09-14T23:48:40.751Z,14.70
2022-09-14T23:51:09.080Z,14.70
2022-09-14T23:53:36.703Z,14.60
2022-09-14T23:56:03.882Z,14.60
2022-09-14T23:58:30.972Z,14.60
